Погода Какаоатанна 2 недели

Чьяпас, Мексика

23 февраля-07 марта
  • 23февраля
    Сегодня
    +22°
    +35°
    Практически безоблачно
    ВремяПогодаТемператураВлажностьДавлениеВетер, м/сВероятность осадков
    00:00Ясно и безоблачно+23°C79 %723 мм1.0 м/с2 %
    03:00Ясно и безоблачно+22°C80 %722 мм0.7 м/с2 %
    06:00Ясно и безоблачно+22°C80 %722 мм0.4 м/с2 %
    09:00Ясно и безоблачно+26°C69 %724 мм1.0 м/с2 %
    12:00Ясно и безоблачно+31°C47 %723 мм1.5 м/с2 %
    15:00Практически безоблачно+34°C44 %722 мм3.2 м/с2 %
    18:00Практически безоблачно+27°C71 %722 мм1.3 м/с2 %
    21:00Ясно и безоблачно+23°C86 %723 мм0.6 м/с2 %
  • 24февраля
    Суббота
    +21°
    +36°
    Небольшая облачность
    ВремяПогодаТемператураВлажностьДавлениеВетер, м/сВероятность осадков
    00:00Ясно и безоблачно+24°C83 %723 мм0.8 м/с2 %
    03:00Ясно и безоблачно+24°C80 %722 мм0.8 м/с2 %
    06:00Ясно и безоблачно+23°C77 %723 мм0.9 м/с2 %
    09:00Ясно и безоблачно+26°C59 %725 мм0.6 м/с2 %
    12:00Ясно и безоблачно+32°C42 %724 мм1.3 м/с2 %
    15:00Небольшая облачность+35°C45 %723 мм3.6 м/с2 %
    18:00Практически безоблачно+28°C72 %724 мм0.7 м/с4 %
    21:00Практически безоблачно+26°C79 %725 мм0.6 м/с3 %
  • 25февраля
    Воскресенье
    +22°
    +35°
    Ясно и безоблачно
    ВремяПогодаТемператураВлажностьДавлениеВетер, м/сВероятность осадков
    00:00Небольшая облачность+24°C83 %725 мм0.9 м/с2 %
    03:00Практически безоблачно+23°C80 %724 мм0.7 м/с6 %
    06:00Ясно и безоблачно+22°C76 %724 мм0.6 м/с3 %
    09:00Ясно и безоблачно+26°C44 %726 мм1.2 м/с2 %
    12:00Ясно и безоблачно+32°C34 %725 мм1.0 м/с2 %
    15:00Ясно и безоблачно+34°C44 %724 мм2.1 м/с2 %
    18:00Ясно и безоблачно+29°C70 %724 мм1.8 м/с2 %
    21:00Ясно и безоблачно+26°C86 %725 мм0.7 м/с3 %
  • 26февраля
    Понедельник
    +20°
    +33°
    Облачно с прояснениями
    ВремяПогодаТемператураВлажностьДавлениеВетер, м/сВероятность осадков
    00:00Практически безоблачно+24°C92 %725 мм1.0 м/с6 %
    03:00Практически безоблачно+23°C90 %724 мм1.1 м/с3 %
    06:00Ясно и безоблачно+22°C79 %724 мм1.2 м/с5 %
    09:00Ясно и безоблачно+27°C60 %726 мм0.3 м/с5 %
    12:00Практически безоблачно+32°C45 %726 мм1.1 м/с6 %
    15:00Облачно с прояснениями+32°C55 %724 мм2.5 м/с24 %
    18:00Практически безоблачно+28°C63 %724 мм0.9 м/с30 %
    21:00Ясно и безоблачно+24°C81 %724 мм0.7 м/с10 %
Мы используем cookies
Соглашаюсь